sensor_id;sensor_type;location;lat;lon;timestamp;pressure;altitude;pressure_sealevel;temperature;humidity
7760;BME280;3924;48.830;9.262;2024-01-07T00:02:08;98005.56;;;4.84;91.43
7760;BME280;3924;48.830;9.262;2024-01-07T00:04:35;97992.94;;;4.84;91.39
7760;BME280;3924;48.830;9.262;2024-01-07T00:07:01;97996.44;;;4.85;91.14
7760;BME280;3924;48.830;9.262;2024-01-07T00:09:28;98001.81;;;4.85;90.99
7760;BME280;3924;48.830;9.262;2024-01-07T00:11:55;98000.47;;;4.82;91.38
7760;BME280;3924;48.830;9.262;2024-01-07T00:14:22;98001.28;;;4.83;91.11
7760;BME280;3924;48.830;9.262;2024-01-07T00:16:48;98009.34;;;4.83;91.17
7760;BME280;3924;48.830;9.262;2024-01-07T00:19:15;98002.34;;;4.82;91.47
7760;BME280;3924;48.830;9.262;2024-01-07T00:21:41;98005.84;;;4.82;90.92
7760;BME280;3924;48.830;9.262;2024-01-07T00:24:08;98006.66;;;4.83;91.25
7760;BME280;3924;48.830;9.262;2024-01-07T00:26:35;98006.66;;;4.83;91.32
7760;BME280;3924;48.830;9.262;2024-01-07T00:29:01;98008.53;;;4.82;91.63
7760;BME280;3924;48.830;9.262;2024-01-07T00:31:28;98007.44;;;4.83;91.43
7760;BME280;3924;48.830;9.262;2024-01-07T00:33:54;98009.06;;;4.84;91.58
7760;BME280;3924;48.830;9.262;2024-01-07T00:36:21;98010.38;;;4.87;91.16
7760;BME280;3924;48.830;9.262;2024-01-07T00:38:47;98005.84;;;4.87;91.49
7760;BME280;3924;48.830;9.262;2024-01-07T00:41:14;98010.94;;;4.89;91.04
7760;BME280;3924;48.830;9.262;2024-01-07T00:43:41;98005.56;;;4.89;91.26
7760;BME280;3924;48.830;9.262;2024-01-07T00:46:07;98001.81;;;4.90;91.39
7760;BME280;3924;48.830;9.262;2024-01-07T00:48:34;98005.03;;;4.92;91.47
7760;BME280;3924;48.830;9.262;2024-01-07T00:51:00;98005.81;;;4.92;91.71
7760;BME280;3924;48.830;9.262;2024-01-07T00:53:27;98007.72;;;4.92;91.20
7760;BME280;3924;48.830;9.262;2024-01-07T00:55:53;98007.19;;;4.90;91.30
7760;BME280;3924;48.830;9.262;2024-01-07T00:58:20;98016.31;;;4.89;91.28
7760;BME280;3924;48.830;9.262;2024-01-07T01:00:46;98006.09;;;4.91;91.58
7760;BME280;3924;48.830;9.262;2024-01-07T01:03:13;98016.03;;;4.90;91.77
7760;BME280;3924;48.830;9.262;2024-01-07T01:05:40;98016.84;;;4.91;91.63
7760;BME280;3924;48.830;9.262;2024-01-07T01:08:06;98012.56;;;4.90;91.25
7760;BME280;3924;48.830;9.262;2024-01-07T01:10:33;98017.66;;;4.91;91.53
7760;BME280;3924;48.830;9.262;2024-01-07T01:12:59;98016.56;;;4.92;91.73
7760;BME280;3924;48.830;9.262;2024-01-07T01:15:26;98023.56;;;4.93;91.54
7760;BME280;3924;48.830;9.262;2024-01-07T01:17:53;98023.56;;;4.93;91.59
7760;BME280;3924;48.830;9.262;2024-01-07T01:20:19;98018.97;;;4.94;91.57
7760;BME280;3924;48.830;9.262;2024-01-07T01:22:46;98023.56;;;4.93;91.41
7760;BME280;3924;48.830;9.262;2024-01-07T01:25:12;98033.50;;;4.93;91.87
7760;BME280;3924;48.830;9.262;2024-01-07T01:27:39;98020.34;;;4.91;91.46
7760;BME280;3924;48.830;9.262;2024-01-07T01:30:06;98030.28;;;4.91;91.29
7760;BME280;3924;48.830;9.262;2024-01-07T01:32:33;98032.69;;;4.92;91.56
7760;BME280;3924;48.830;9.262;2024-01-07T01:34:59;98029.72;;;4.94;91.56
7760;BME280;3924;48.830;9.262;2024-01-07T01:37:27;98034.28;;;4.93;91.46
7760;BME280;3924;48.830;9.262;2024-01-07T01:39:53;98033.25;;;4.94;91.55
7760;BME280;3924;48.830;9.262;2024-01-07T01:42:20;98033.50;;;4.93;91.98
7760;BME280;3924;48.830;9.262;2024-01-07T01:44:46;98031.38;;;4.95;91.72
7760;BME280;3924;48.830;9.262;2024-01-07T01:47:13;98034.06;;;4.95;91.83
7760;BME280;3924;48.830;9.262;2024-01-07T01:49:40;98033.50;;;4.93;91.79
7760;BME280;3924;48.830;9.262;2024-01-07T01:52:08;98036.19;;;4.93;91.71
7760;BME280;3924;48.830;9.262;2024-01-07T01:54:35;98031.59;;;4.93;91.82
7760;BME280;3924;48.830;9.262;2024-01-07T01:57:02;98037.53;;;4.96;91.50
7760;BME280;3924;48.830;9.262;2024-01-07T01:59:29;98039.94;;;4.97;91.64
7760;BME280;3924;48.830;9.262;2024-01-07T02:01:55;98034.31;;;4.99;91.80
7760;BME280;3924;48.830;9.262;2024-01-07T02:04:22;98037.78;;;4.99;91.82
7760;BME280;3924;48.830;9.262;2024-01-07T02:06:49;98036.19;;;4.98;91.95
7760;BME280;3924;48.830;9.262;2024-01-07T02:09:15;98037.78;;;4.99;91.94
7760;BME280;3924;48.830;9.262;2024-01-07T02:11:42;98035.38;;;4.98;92.49
7760;BME280;3924;48.830;9.262;2024-01-07T02:14:09;98030.00;;;4.98;91.74
7760;BME280;3924;48.830;9.262;2024-01-07T02:16:35;98030.81;;;4.98;92.13
7760;BME280;3924;48.830;9.262;2024-01-07T02:19:02;98043.16;;;4.99;91.98
7760;BME280;3924;48.830;9.262;2024-01-07T02:21:28;98039.41;;;5.00;91.65
7760;BME280;3924;48.830;9.262;2024-01-07T02:23:55;98041.28;;;5.00;92.03
7760;BME280;3924;48.830;9.262;2024-01-07T02:26:22;98036.19;;;4.98;91.99
7760;BME280;3924;48.830;9.262;2024-01-07T02:28:48;98043.97;;;5.00;91.89
7760;BME280;3924;48.830;9.262;2024-01-07T02:31:15;98034.56;;;4.97;92.16
7760;BME280;3924;48.830;9.262;2024-01-07T02:33:42;98039.94;;;4.97;92.21
7760;BME280;3924;48.830;9.262;2024-01-07T02:36:08;98041.84;;;4.97;91.78
7760;BME280;3924;48.830;9.262;2024-01-07T02:38:35;98044.78;;;4.95;92.03
7760;BME280;3924;48.830;9.262;2024-01-07T02:41:01;98032.69;;;4.92;91.81
7760;BME280;3924;48.830;9.262;2024-01-07T02:43:28;98041.81;;;4.91;92.05
7760;BME280;3924;48.830;9.262;2024-01-07T02:45:54;98039.41;;;4.90;92.05
7760;BME280;3924;48.830;9.262;2024-01-07T02:48:21;98032.16;;;4.90;92.14
7760;BME280;3924;48.830;9.262;2024-01-07T02:50:47;98039.41;;;4.90;92.05
7760;BME280;3924;48.830;9.262;2024-01-07T02:53:14;98033.50;;;4.88;91.74
7760;BME280;3924;48.830;9.262;2024-01-07T02:55:40;98043.69;;;4.86;92.27
7760;BME280;3924;48.830;9.262;2024-01-07T02:58:07;98028.38;;;4.86;92.20
7760;BME280;3924;48.830;9.262;2024-01-07T03:00:34;98035.63;;;4.86;92.33
7760;BME280;3924;48.830;9.262;2024-01-07T03:03:00;98034.56;;;4.87;92.08
7760;BME280;3924;48.830;9.262;2024-01-07T03:05:27;98037.78;;;4.84;92.24
7760;BME280;3924;48.830;9.262;2024-01-07T03:07:55;98039.69;;;4.83;92.10
7760;BME280;3924;48.830;9.262;2024-01-07T03:10:22;98039.94;;;4.82;91.96
7760;BME280;3924;48.830;9.262;2024-01-07T03:12:48;98040.47;;;4.79;92.22
7760;BME280;3924;48.830;9.262;2024-01-07T03:15:15;98050.13;;;4.80;92.14
7760;BME280;3924;48.830;9.262;2024-01-07T03:17:42;98051.50;;;4.82;92.34
7760;BME280;3924;48.830;9.262;2024-01-07T03:20:10;98047.19;;;4.81;92.25
7760;BME280;3924;48.830;9.262;2024-01-07T03:22:37;98052.31;;;4.83;92.24
7760;BME280;3924;48.830;9.262;2024-01-07T03:25:03;98050.13;;;4.80;92.35
7760;BME280;3924;48.830;9.262;2024-01-07T03:27:30;98056.56;;;4.79;92.40
7760;BME280;3924;48.830;9.262;2024-01-07T03:29:56;98055.78;;;4.78;92.14
7760;BME280;3924;48.830;9.262;2024-01-07T03:32:23;98063.56;;;4.75;92.45
7760;BME280;3924;48.830;9.262;2024-01-07T03:34:49;98059.81;;;4.71;92.12
7760;BME280;3924;48.830;9.262;2024-01-07T03:37:16;98061.69;;;4.70;92.48
7760;BME280;3924;48.830;9.262;2024-01-07T03:39:44;98057.66;;;4.68;92.12
7760;BME280;3924;48.830;9.262;2024-01-07T03:42:11;98057.66;;;4.62;92.52
7760;BME280;3924;48.830;9.262;2024-01-07T03:44:38;98058.72;;;4.61;92.37
7760;BME280;3924;48.830;9.262;2024-01-07T03:47:06;98059.22;;;4.58;92.49
7760;BME280;3924;48.830;9.262;2024-01-07T03:49:32;98056.03;;;4.56;92.59
7760;BME280;3924;48.830;9.262;2024-01-07T03:51:59;98057.38;;;4.54;92.65
7760;BME280;3924;48.830;9.262;2024-01-07T03:54:26;98062.75;;;4.54;92.41
7760;BME280;3924;48.830;9.262;2024-01-07T03:56:52;98061.94;;;4.53;92.80
7760;BME280;3924;48.830;9.262;2024-01-07T03:59:19;98055.72;;;4.53;92.61
7760;BME280;3924;48.830;9.262;2024-01-07T04:01:45;98064.06;;;4.51;92.69
7760;BME280;3924;48.830;9.262;2024-01-07T04:04:13;98064.06;;;4.51;92.39
7760;BME280;3924;48.830;9.262;2024-01-07T04:06:39;98066.47;;;4.53;92.34
7760;BME280;3924;48.830;9.262;2024-01-07T04:09:08;98068.91;;;4.54;92.49
7760;BME280;3924;48.830;9.262;2024-01-07T04:11:42;98069.44;;;4.56;92.69
7760;BME280;3924;48.830;9.262;2024-01-07T04:14:09;98072.41;;;4.60;92.54
7760;BME280;3924;48.830;9.262;2024-01-07T04:16:36;98079.63;;;4.59;92.78
7760;BME280;3924;48.830;9.262;2024-01-07T04:19:02;98072.16;;;4.61;92.42
7760;BME280;3924;48.830;9.262;2024-01-07T04:21:29;98074.03;;;4.61;92.94
7760;BME280;3924;48.830;9.262;2024-01-07T04:23:56;98074.03;;;4.61;92.25
7760;BME280;3924;48.830;9.262;2024-01-07T04:26:22;98078.59;;;4.60;92.27
7760;BME280;3924;48.830;9.262;2024-01-07T04:28:49;98085.00;;;4.59;92.76
7760;BME280;3924;48.830;9.262;2024-01-07T04:31:16;98084.47;;;4.57;92.60
7760;BME280;3924;48.830;9.262;2024-01-07T04:33:43;98089.03;;;4.57;92.42
7760;BME280;3924;48.830;9.262;2024-01-07T04:36:09;98079.66;;;4.54;92.54
7760;BME280;3924;48.830;9.262;2024-01-07T04:38:36;98086.63;;;4.55;92.62
7760;BME280;3924;48.830;9.262;2024-01-07T04:41:03;98091.19;;;4.55;92.35
7760;BME280;3924;48.830;9.262;2024-01-07T04:43:29;98088.78;;;4.53;92.34
7760;BME280;3924;48.830;9.262;2024-01-07T04:45:56;98089.81;;;4.52;92.35
7760;BME280;3924;48.830;9.262;2024-01-07T04:48:22;98095.75;;;4.54;92.58
7760;BME280;3924;48.830;9.262;2024-01-07T04:50:49;98090.38;;;4.54;92.50
7760;BME280;3924;48.830;9.262;2024-01-07T04:53:16;98098.44;;;4.54;92.47
7760;BME280;3924;48.830;9.262;2024-01-07T04:55:43;98101.13;;;4.54;92.34
7760;BME280;3924;48.830;9.262;2024-01-07T04:58:09;98097.88;;;4.52;92.37
7760;BME280;3924;48.830;9.262;2024-01-07T05:00:36;98098.66;;;4.53;92.38
7760;BME280;3924;48.830;9.262;2024-01-07T05:03:03;98103.25;;;4.52;92.18
7760;BME280;3924;48.830;9.262;2024-01-07T05:05:29;98104.88;;;4.53;92.82
7760;BME280;3924;48.830;9.262;2024-01-07T05:07:56;98113.16;;;4.52;92.88
7760;BME280;3924;48.830;9.262;2024-01-07T05:10:25;98103.25;;;4.52;92.70
7760;BME280;3924;48.830;9.262;2024-01-07T05:12:52;98104.88;;;4.53;92.81
7760;BME280;3924;48.830;9.262;2024-01-07T05:15:18;98110.25;;;4.53;92.50
7760;BME280;3924;48.830;9.262;2024-01-07T05:17:45;98114.25;;;4.56;92.55
7760;BME280;3924;48.830;9.262;2024-01-07T05:20:11;98115.06;;;4.56;92.78
7760;BME280;3924;48.830;9.262;2024-01-07T05:22:38;98118.03;;;4.55;92.54
7760;BME280;3924;48.830;9.262;2024-01-07T05:25:04;98111.84;;;4.54;92.26
7760;BME280;3924;48.830;9.262;2024-01-07T05:27:31;98116.94;;;4.51;92.51
7760;BME280;3924;48.830;9.262;2024-01-07T05:29:57;98119.34;;;4.47;92.41
7760;BME280;3924;48.830;9.262;2024-01-07T05:32:24;98120.41;;;4.46;92.42
7760;BME280;3924;48.830;9.262;2024-01-07T05:34:51;98127.91;;;4.44;92.33
7760;BME280;3924;48.830;9.262;2024-01-07T05:37:18;98132.19;;;4.45;92.72
7760;BME280;3924;48.830;9.262;2024-01-07T05:39:44;98126.31;;;4.43;92.34
7760;BME280;3924;48.830;9.262;2024-01-07T05:42:11;98126.84;;;4.45;92.88
7760;BME280;3924;48.830;9.262;2024-01-07T05:44:37;98124.69;;;4.42;92.89
7760;BME280;3924;48.830;9.262;2024-01-07T05:47:04;98123.09;;;4.41;92.59
7760;BME280;3924;48.830;9.262;2024-01-07T05:49:31;98131.41;;;4.39;92.35
7760;BME280;3924;48.830;9.262;2024-01-07T05:51:57;98140.25;;;4.40;92.58
7760;BME280;3924;48.830;9.262;2024-01-07T05:54:24;98142.94;;;4.40;92.79
7760;BME280;3924;48.830;9.262;2024-01-07T05:56:51;98140.25;;;4.40;92.81
7760;BME280;3924;48.830;9.262;2024-01-07T05:59:18;98153.69;;;4.40;92.77
7760;BME280;3924;48.830;9.262;2024-01-07T06:01:45;98159.56;;;4.42;92.77
7760;BME280;3924;48.830;9.262;2024-01-07T06:04:12;98150.41;;;4.38;92.67
7760;BME280;3924;48.830;9.262;2024-01-07T06:06:38;98146.66;;;4.39;92.86
7760;BME280;3924;48.830;9.262;2024-01-07T06:09:05;98145.63;;;4.45;93.03
7760;BME280;3924;48.830;9.262;2024-01-07T06:11:32;98146.44;;;4.46;92.68
7760;BME280;3924;48.830;9.262;2024-01-07T06:13:59;98148.56;;;4.44;92.70
7760;BME280;3924;48.830;9.262;2024-01-07T06:16:25;98149.91;;;4.41;93.12
7760;BME280;3924;48.830;9.262;2024-01-07T06:18:52;98143.75;;;4.41;93.09
7760;BME280;3924;48.830;9.262;2024-01-07T06:21:19;98159.03;;;4.40;92.74
7760;BME280;3924;48.830;9.262;2024-01-07T06:23:45;98156.34;;;4.40;92.56
7760;BME280;3924;48.830;9.262;2024-01-07T06:26:12;98159.03;;;4.40;92.78
7760;BME280;3924;48.830;9.262;2024-01-07T06:28:38;98160.09;;;4.39;92.63
7760;BME280;3924;48.830;9.262;2024-01-07T06:31:05;98171.66;;;4.39;92.97
7760;BME280;3924;48.830;9.262;2024-01-07T06:33:32;98166.53;;;4.38;92.87
7760;BME280;3924;48.830;9.262;2024-01-07T06:36:00;98171.09;;;4.37;92.70
7760;BME280;3924;48.830;9.262;2024-01-07T06:38:26;98175.66;;;4.37;92.80
7760;BME280;3924;48.830;9.262;2024-01-07T06:40:53;98183.69;;;4.37;92.58
7760;BME280;3924;48.830;9.262;2024-01-07T06:43:27;98189.59;;;4.39;92.70
7760;BME280;3924;48.830;9.262;2024-01-07T06:45:55;98189.06;;;4.37;92.76
7760;BME280;3924;48.830;9.262;2024-01-07T06:48:21;98191.75;;;4.37;92.62
7760;BME280;3924;48.830;9.262;2024-01-07T06:50:48;98194.16;;;4.38;92.94
7760;BME280;3924;48.830;9.262;2024-01-07T06:53:15;98188.78;;;4.38;93.00
7760;BME280;3924;48.830;9.262;2024-01-07T06:55:42;98196.59;;;4.40;92.98
7760;BME280;3924;48.830;9.262;2024-01-07T06:58:09;98195.81;;;4.39;93.05
7760;BME280;3924;48.830;9.262;2024-01-07T07:00:36;98198.72;;;4.38;92.83
7760;BME280;3924;48.830;9.262;2024-01-07T07:03:02;98203.84;;;4.39;92.92
7760;BME280;3924;48.830;9.262;2024-01-07T07:05:29;98205.69;;;4.39;92.89
7760;BME280;3924;48.830;9.262;2024-01-07T07:07:56;98214.59;;;4.39;92.65
7760;BME280;3924;48.830;9.262;2024-01-07T07:10:22;98212.44;;;4.42;92.59
7760;BME280;3924;48.830;9.262;2024-01-07T07:12:49;98214.06;;;4.43;92.54
7760;BME280;3924;48.830;9.262;2024-01-07T07:15:17;98219.13;;;4.39;92.72
7760;BME280;3924;48.830;9.262;2024-01-07T07:17:44;98219.97;;;4.39;92.63
7760;BME280;3924;48.830;9.262;2024-01-07T07:20:11;98226.13;;;4.40;92.90
7760;BME280;3924;48.830;9.262;2024-01-07T07:22:37;98232.53;;;4.39;92.55
7760;BME280;3924;48.830;9.262;2024-01-07T07:25:04;98234.97;;;4.41;92.56
7760;BME280;3924;48.830;9.262;2024-01-07T07:27:32;98241.66;;;4.38;92.99
7760;BME280;3924;48.830;9.262;2024-01-07T07:29:58;98246.53;;;4.41;92.73
7760;BME280;3924;48.830;9.262;2024-01-07T07:32:25;98244.91;;;4.40;92.89
7760;BME280;3924;48.830;9.262;2024-01-07T07:34:52;98252.69;;;4.42;92.79
7760;BME280;3924;48.830;9.262;2024-01-07T07:37:18;98251.63;;;4.43;92.45
7760;BME280;3924;48.830;9.262;2024-01-07T07:39:47;98256.94;;;4.37;92.17
7760;BME280;3924;48.830;9.262;2024-01-07T07:42:13;98260.97;;;4.35;92.58
7760;BME280;3924;48.830;9.262;2024-01-07T07:44:40;98270.09;;;4.34;92.67
7760;BME280;3924;48.830;9.262;2024-01-07T07:47:06;98265.81;;;4.33;92.34
7760;BME280;3924;48.830;9.262;2024-01-07T07:49:34;98274.41;;;4.35;92.89
7760;BME280;3924;48.830;9.262;2024-01-07T07:52:02;98273.28;;;4.31;92.72
7760;BME280;3924;48.830;9.262;2024-01-07T07:54:29;98279.44;;;4.31;92.26
7760;BME280;3924;48.830;9.262;2024-01-07T07:56:57;98277.03;;;4.30;92.62
7760;BME280;3924;48.830;9.262;2024-01-07T07:59:24;98282.94;;;4.32;92.66
7760;BME280;3924;48.830;9.262;2024-01-07T08:01:51;98285.63;;;4.32;92.89
7760;BME280;3924;48.830;9.262;2024-01-07T08:04:18;98289.38;;;4.31;92.36
7760;BME280;3924;48.830;9.262;2024-01-07T08:06:44;98290.44;;;4.30;92.70
7760;BME280;3924;48.830;9.262;2024-01-07T08:09:12;98293.94;;;4.30;92.64
7760;BME280;3924;48.830;9.262;2024-01-07T08:11:38;98294.50;;;4.32;92.50
7760;BME280;3924;48.830;9.262;2024-01-07T08:14:06;98299.09;;;4.37;92.29
7760;BME280;3924;48.830;9.262;2024-01-07T08:16:33;98302.28;;;4.34;92.09
7760;BME280;3924;48.830;9.262;2024-01-07T08:18:59;98307.09;;;4.32;92.07
7760;BME280;3924;48.830;9.262;2024-01-07T08:21:26;98306.00;;;4.28;92.31
7760;BME280;3924;48.830;9.262;2024-01-07T08:23:54;98306.50;;;4.25;92.12
7760;BME280;3924;48.830;9.262;2024-01-07T08:26:21;98308.66;;;4.23;92.14
7760;BME280;3924;48.830;9.262;2024-01-07T08:28:47;98308.16;;;4.26;92.31
7760;BME280;3924;48.830;9.262;2024-01-07T08:31:14;98306.50;;;4.25;92.22
7760;BME280;3924;48.830;9.262;2024-01-07T08:33:41;98309.44;;;4.23;91.87
7760;BME280;3924;48.830;9.262;2024-01-07T08:36:08;98316.44;;;4.24;92.23
7760;BME280;3924;48.830;9.262;2024-01-07T08:38:34;98311.88;;;4.25;92.04
7760;BME280;3924;48.830;9.262;2024-01-07T08:41:01;98314.00;;;4.23;91.83
7760;BME280;3924;48.830;9.262;2024-01-07T08:43:28;98320.19;;;4.23;92.23
7760;BME280;3924;48.830;9.262;2024-01-07T08:45:55;98318.28;;;4.19;91.95
7760;BME280;3924;48.830;9.262;2024-01-07T08:48:22;98324.69;;;4.18;91.93
7760;BME280;3924;48.830;9.262;2024-01-07T08:50:49;98324.91;;;4.11;91.70
7760;BME280;3924;48.830;9.262;2024-01-07T08:53:17;98327.84;;;4.09;91.73
7760;BME280;3924;48.830;9.262;2024-01-07T08:55:45;98319.81;;;4.09;92.23
7760;BME280;3924;48.830;9.262;2024-01-07T08:58:11;98330.03;;;4.13;91.97
7760;BME280;3924;48.830;9.262;2024-01-07T09:00:38;98338.91;;;4.13;91.69
7760;BME280;3924;48.830;9.262;2024-01-07T09:03:04;98334.06;;;4.15;91.55
7760;BME280;3924;48.830;9.262;2024-01-07T09:05:31;98340.78;;;4.18;91.78
7760;BME280;3924;48.830;9.262;2024-01-07T09:07:58;98343.47;;;4.13;91.60
7760;BME280;3924;48.830;9.262;2024-01-07T09:10:28;98350.97;;;4.16;91.93
7760;BME280;3924;48.830;9.262;2024-01-07T09:12:54;98349.38;;;4.15;91.51
7760;BME280;3924;48.830;9.262;2024-01-07T09:15:21;98353.66;;;4.16;91.58
7760;BME280;3924;48.830;9.262;2024-01-07T09:17:48;98355.81;;;4.14;91.54
7760;BME280;3924;48.830;9.262;2024-01-07T09:20:14;98362.25;;;4.18;91.44
7760;BME280;3924;48.830;9.262;2024-01-07T09:22:41;98368.44;;;4.18;91.35
7760;BME280;3924;48.830;9.262;2024-01-07T09:25:10;98369.81;;;4.21;91.12
7760;BME280;3924;48.830;9.262;2024-01-07T09:27:37;98373.25;;;4.16;91.31
7760;BME280;3924;48.830;9.262;2024-01-07T09:30:04;98378.63;;;4.16;91.14
7760;BME280;3924;48.830;9.262;2024-01-07T09:32:31;98372.69;;;4.14;91.09
7760;BME280;3924;48.830;9.262;2024-01-07T09:35:03;98382.88;;;4.12;90.81
7760;BME280;3924;48.830;9.262;2024-01-07T09:37:32;98382.56;;;4.08;91.22
7760;BME280;3924;48.830;9.262;2024-01-07T09:39:59;98389.25;;;4.06;90.86
7760;BME280;3924;48.830;9.262;2024-01-07T09:42:25;98393.81;;;4.05;91.16
7760;BME280;3924;48.830;9.262;2024-01-07T09:44:52;98389.81;;;4.08;91.18
7760;BME280;3924;48.830;9.262;2024-01-07T09:47:18;98387.94;;;4.08;90.96
7760;BME280;3924;48.830;9.262;2024-01-07T09:49:46;98389.59;;;4.15;90.82
7760;BME280;3924;48.830;9.262;2024-01-07T09:52:13;98385.84;;;4.16;90.61
7760;BME280;3924;48.830;9.262;2024-01-07T09:54:40;98387.47;;;4.17;90.62
7760;BME280;3924;48.830;9.262;2024-01-07T09:57:08;98386.41;;;4.18;90.34
7760;BME280;3924;48.830;9.262;2024-01-07T09:59:35;98377.00;;;4.15;90.10
7760;BME280;3924;48.830;9.262;2024-01-07T10:02:23;98378.63;;;4.16;90.53
7760;BME280;3924;48.830;9.262;2024-01-07T10:04:49;98368.41;;;4.13;90.26
7760;BME280;3924;48.830;9.262;2024-01-07T10:07:17;98377.31;;;4.19;90.38
7760;BME280;3924;48.830;9.262;2024-01-07T10:09:43;98367.06;;;4.16;90.14
7760;BME280;3924;48.830;9.262;2024-01-07T10:12:10;98371.91;;;4.14;90.12
7760;BME280;3924;48.830;9.262;2024-01-07T10:14:38;98372.97;;;4.13;90.07
7760;BME280;3924;48.830;9.262;2024-01-07T10:17:16;98377.75;;;4.10;90.08
7760;BME280;3924;48.830;9.262;2024-01-07T10:19:44;98383.09;;;4.05;89.77
7760;BME280;3924;48.830;9.262;2024-01-07T10:22:13;98387.88;;;4.03;89.88
7760;BME280;3924;48.830;9.262;2024-01-07T10:24:41;98383.50;;;3.92;89.58
7760;BME280;3924;48.830;9.262;2024-01-07T10:27:09;98384.50;;;3.86;89.88
7760;BME280;3924;48.830;9.262;2024-01-07T10:29:36;98386.88;;;3.82;89.81
7760;BME280;3924;48.830;9.262;2024-01-07T10:32:03;98389.06;;;3.86;90.00
7760;BME280;3924;48.830;9.262;2024-01-07T10:34:33;98386.94;;;3.88;90.05
7760;BME280;3924;48.830;9.262;2024-01-07T10:37:02;98397.66;;;3.88;89.72
7760;BME280;3924;48.830;9.262;2024-01-07T10:39:29;98398.22;;;3.90;89.62
7760;BME280;3924;48.830;9.262;2024-01-07T10:41:57;98402.28;;;3.92;89.78
7760;BME280;3924;48.830;9.262;2024-01-07T10:44:31;98397.97;;;3.91;89.65
7760;BME280;3924;48.830;9.262;2024-01-07T10:46:58;98405.75;;;3.93;89.47
7760;BME280;3924;48.830;9.262;2024-01-07T10:49:27;98407.13;;;3.95;89.46
7760;BME280;3924;48.830;9.262;2024-01-07T10:52:06;98406.81;;;3.92;89.01
7760;BME280;3924;48.830;9.262;2024-01-07T10:54:35;98405.97;;;3.86;89.08
7760;BME280;3924;48.830;9.262;2024-01-07T10:57:42;98403.53;;;3.84;89.18
7760;BME280;3924;48.830;9.262;2024-01-07T11:00:09;98416.38;;;3.82;89.09
7760;BME280;3924;48.830;9.262;2024-01-07T11:02:59;98410.72;;;3.79;88.96
7760;BME280;3924;48.830;9.262;2024-01-07T11:05:31;98406.44;;;3.83;89.24
7760;BME280;3924;48.830;9.262;2024-01-07T11:10:50;98404.91;;;3.87;88.35
7760;BME280;3924;48.830;9.262;2024-01-07T11:13:33;98406.78;;;3.87;89.36
7760;BME280;3924;48.830;9.262;2024-01-07T11:16:07;98408.69;;;3.91;88.93
7760;BME280;3924;48.830;9.262;2024-01-07T11:18:46;98407.31;;;3.89;88.49
7760;BME280;3924;48.830;9.262;2024-01-07T11:21:20;98398.47;;;3.88;88.50
7760;BME280;3924;48.830;9.262;2024-01-07T11:23:47;98420.06;;;3.76;88.37
7760;BME280;3924;48.830;9.262;2024-01-07T11:26:14;98415.13;;;3.68;88.21
7760;BME280;3924;48.830;9.262;2024-01-07T11:28:57;98413.84;;;3.71;88.47
7760;BME280;3924;48.830;9.262;2024-01-07T11:34:07;98419.75;;;3.73;88.56
7760;BME280;3924;48.830;9.262;2024-01-07T11:36:35;98419.22;;;3.71;88.32
7760;BME280;3924;48.830;9.262;2024-01-07T11:39:04;98414.13;;;3.74;88.40
7760;BME280;3924;48.830;9.262;2024-01-07T11:41:37;98413.59;;;3.72;88.01
7760;BME280;3924;48.830;9.262;2024-01-07T11:44:04;98408.50;;;3.71;88.17
7760;BME280;3924;48.830;9.262;2024-01-07T11:46:32;98422.44;;;3.73;88.18
7760;BME280;3924;48.830;9.262;2024-01-07T11:48:59;98412.78;;;3.72;87.74
7760;BME280;3924;48.830;9.262;2024-01-07T11:51:28;98416.47;;;3.66;87.95
7760;BME280;3924;48.830;9.262;2024-01-07T11:53:54;98421.56;;;3.67;88.13
7760;BME280;3924;48.830;9.262;2024-01-07T11:56:21;98421.56;;;3.67;87.90
7760;BME280;3924;48.830;9.262;2024-01-07T11:58:48;98421.69;;;3.55;87.76
7760;BME280;3924;48.830;9.262;2024-01-07T12:01:15;98424.81;;;3.47;87.45
7760;BME280;3924;48.830;9.262;2024-01-07T12:03:46;98419.66;;;3.41;87.71
7760;BME280;3924;48.830;9.262;2024-01-07T12:06:13;98418.84;;;3.40;87.83
7760;BME280;3924;48.830;9.262;2024-01-07T12:08:41;98416.09;;;3.35;87.90
7760;BME280;3924;48.830;9.262;2024-01-07T12:11:11;98424.44;;;3.39;87.76
7760;BME280;3924;48.830;9.262;2024-01-07T12:13:39;98427.38;;;3.37;87.47
7760;BME280;3924;48.830;9.262;2024-01-07T12:16:07;98428.19;;;3.38;87.66
7760;BME280;3924;48.830;9.262;2024-01-07T12:18:38;98429.31;;;3.42;88.10
7760;BME280;3924;48.830;9.262;2024-01-07T12:21:05;98429.31;;;3.42;87.32
7760;BME280;3924;48.830;9.262;2024-01-07T12:23:36;98431.34;;;3.35;87.15
7760;BME280;3924;48.830;9.262;2024-01-07T12:26:08;98432.16;;;3.35;87.54
7760;BME280;3924;48.830;9.262;2024-01-07T12:28:36;98436.41;;;3.31;87.65
7760;BME280;3924;48.830;9.262;2024-01-07T12:31:04;98434.28;;;3.33;87.13
7760;BME280;3924;48.830;9.262;2024-01-07T12:33:31;98439.28;;;3.24;87.25
7760;BME280;3924;48.830;9.262;2024-01-07T12:35:59;98441.63;;;3.21;87.12
7760;BME280;3924;48.830;9.262;2024-01-07T12:38:27;98442.69;;;3.20;86.95
7760;BME280;3924;48.830;9.262;2024-01-07T12:40:53;98438.38;;;3.19;86.88
7760;BME280;3924;48.830;9.262;2024-01-07T12:43:20;98438.56;;;3.12;87.21
7760;BME280;3924;48.830;9.262;2024-01-07T12:45:48;98440.44;;;3.12;87.01
7760;BME280;3924;48.830;9.262;2024-01-07T12:48:15;98441.78;;;3.14;86.98
7760;BME280;3924;48.830;9.262;2024-01-07T12:50:42;98444.25;;;3.16;87.08
7760;BME280;3924;48.830;9.262;2024-01-07T12:53:09;98444.56;;;3.19;86.84
7760;BME280;3924;48.830;9.262;2024-01-07T12:55:35;98439.44;;;3.18;86.92
7760;BME280;3924;48.830;9.262;2024-01-07T12:58:02;98444.25;;;3.16;87.11
7760;BME280;3924;48.830;9.262;2024-01-07T13:00:29;98454.63;;;3.12;86.58
7760;BME280;3924;48.830;9.262;2024-01-07T13:02:55;98455.44;;;3.13;86.76
7760;BME280;3924;48.830;9.262;2024-01-07T13:05:26;98452.22;;;3.11;86.87
7760;BME280;3924;48.830;9.262;2024-01-07T13:07:53;98459.44;;;3.10;86.67
7760;BME280;3924;48.830;9.262;2024-01-07T13:10:20;98458.53;;;3.05;86.34
7760;BME280;3924;48.830;9.262;2024-01-07T13:12:47;98465.25;;;3.07;86.47
7760;BME280;3924;48.830;9.262;2024-01-07T13:15:18;98463.00;;;2.99;86.52
7760;BME280;3924;48.830;9.262;2024-01-07T13:17:46;98471.78;;;2.94;86.80
7760;BME280;3924;48.830;9.262;2024-01-07T13:20:14;98469.59;;;2.91;86.70
7760;BME280;3924;48.830;9.262;2024-01-07T13:22:41;98477.06;;;2.89;86.64
7760;BME280;3924;48.830;9.262;2024-01-07T13:25:08;98477.06;;;2.89;86.61
7760;BME280;3924;48.830;9.262;2024-01-07T13:27:35;98482.91;;;2.86;86.37
7760;BME280;3924;48.830;9.262;2024-01-07T13:30:04;98480.97;;;2.82;86.29
7760;BME280;3924;48.830;9.262;2024-01-07T13:32:32;98488.75;;;2.83;86.51
7760;BME280;3924;48.830;9.262;2024-01-07T13:35:06;98497.03;;;2.82;86.19
7760;BME280;3924;48.830;9.262;2024-01-07T13:37:37;98502.13;;;2.83;86.24
7760;BME280;3924;48.830;9.262;2024-01-07T13:40:04;98501.06;;;2.84;86.13